LFQA

Details ICAO LFQA
Name Reims Prunay
Region France
Timezone Europe/Paris (UTC+1.0)
Plans Departing 34
Arriving 28
Stats Elevation 313 ft / 95 m (AMSL)
Location 49.208800° 4.157050°
Runways 1
Magnetic Variation 1.239° E
Sunrise 2018-12-09 07:27:27 UTC / 2018-12-09 08:27:27 Local
Sunset 2018-12-09 15:46:43 UTC / 2018-12-09 16:46:43 Local
Advertisement - Login to hide

Runways

ID Width Length Bearing (true/mag) Surface Threshold Overrun Markings Lighting
07 98 ft / 30 m 3,770 ft / 1,149 m 66.27° / 65.04° ASPHALT 640 ft / 195 m 0 ft / 0 m APP EDGE THRESHOLD
25 98 ft / 30 m 3,770 ft / 1,149 m 246.28° / 245.05° ASPHALT 1,066 ft / 325 m 0 ft / 0 m APP EDGE THRESHOLD

Map

Weather


0- 5 10 15 20 25 30 35+ Temperature / °C

Clouds and Precipitation
Forecast for 2018-12-10 00:00 UTC. Updated 2 hours ago

Ground ~20,000 ft ~40,000 ft Winds

METAR

LFQA 092300Z AUTO 29007KT 9999 FEW032 07/04 Q1021

TAF

Not found

Frequencies

Tower 134.92 MHz AFIS
Approach 119.80 MHz REIMS APP
Warning: Do not use this data for real-world aviation or navigation. No guarantee of current accuracy is given.